createdAt,value
2018-06-09T00:00:12.370Z,21.61
2018-06-09T00:01:48.350Z,21.59
2018-06-09T00:03:24.294Z,21.55
2018-06-09T00:05:00.236Z,21.49
2018-06-09T00:06:36.220Z,21.34
2018-06-09T00:08:14.309Z,21.29
2018-06-09T00:09:50.261Z,21.18
2018-06-09T00:11:26.237Z,21.15
2018-06-09T00:13:02.370Z,21.14
2018-06-09T00:14:38.321Z,21.20
2018-06-09T00:16:14.411Z,21.27
2018-06-09T00:17:50.427Z,21.19
2018-06-09T00:19:26.368Z,21.13
2018-06-09T00:21:02.327Z,21.07
2018-06-09T00:22:38.381Z,21.05
2018-06-09T00:24:14.379Z,21.03
2018-06-09T00:25:50.324Z,21.00
2018-06-09T00:27:26.312Z,20.92
2018-06-09T00:29:02.329Z,20.99
2018-06-09T00:30:38.287Z,20.78
2018-06-09T00:32:14.213Z,20.73
2018-06-09T00:33:58.084Z,20.84
2018-06-09T00:35:34.148Z,20.81
2018-06-09T00:37:10.076Z,20.74
2018-06-09T00:38:46.129Z,20.71
2018-06-09T00:40:22.148Z,20.78
2018-06-09T00:41:58.091Z,20.81
2018-06-09T00:43:34.302Z,20.79
2018-06-09T00:45:10.342Z,20.77
2018-06-09T00:46:46.362Z,20.73
2018-06-09T00:48:22.346Z,20.71
2018-06-09T00:49:59.411Z,20.68
2018-06-09T00:51:35.368Z,20.66
2018-06-09T00:53:11.421Z,20.69
2018-06-09T00:54:47.392Z,20.62
2018-06-09T00:56:40.425Z,20.62
2018-06-09T00:58:16.380Z,20.62
2018-06-09T00:59:52.313Z,20.64
2018-06-09T01:01:28.508Z,20.61
2018-06-09T01:03:04.530Z,20.64
2018-06-09T01:04:40.648Z,20.60
2018-06-09T01:06:16.996Z,20.66
2018-06-09T01:07:53.039Z,20.67
2018-06-09T01:09:29.000Z,20.72
2018-06-09T01:11:04.943Z,20.76
2018-06-09T01:12:40.950Z,20.70
2018-06-09T01:14:16.887Z,20.73
2018-06-09T01:15:52.817Z,20.67
2018-06-09T01:17:29.014Z,20.50
2018-06-09T01:19:04.986Z,20.44
2018-06-09T01:20:40.995Z,20.44
2018-06-09T01:22:17.451Z,20.41
2018-06-09T01:23:53.488Z,20.45
2018-06-09T01:25:29.493Z,20.51
2018-06-09T01:27:05.500Z,20.58
2018-06-09T01:28:41.508Z,20.59
2018-06-09T01:30:17.465Z,20.47
2018-06-09T01:31:53.750Z,20.46
2018-06-09T01:33:29.702Z,20.42
2018-06-09T01:35:05.800Z,20.44
2018-06-09T01:36:41.772Z,20.44
2018-06-09T01:38:17.719Z,20.45
2018-06-09T01:39:53.696Z,20.44
2018-06-09T01:41:29.923Z,20.40
2018-06-09T01:43:06.119Z,20.35
2018-06-09T01:44:42.092Z,20.36
2018-06-09T01:46:18.103Z,20.32
2018-06-09T01:47:54.166Z,20.42
2018-06-09T01:49:30.142Z,20.46
2018-06-09T01:51:06.071Z,20.42
2018-06-09T01:52:42.111Z,20.33
2018-06-09T01:54:18.084Z,20.28
2018-06-09T01:55:54.232Z,20.28
2018-06-09T01:57:30.304Z,20.19
2018-06-09T01:59:06.232Z,20.12
2018-06-09T02:00:42.348Z,20.10
2018-06-09T02:02:18.275Z,20.01
2018-06-09T02:03:54.212Z,19.98
2018-06-09T02:05:30.267Z,20.00
2018-06-09T02:07:06.241Z,20.04
2018-06-09T02:08:42.231Z,19.94
2018-06-09T02:10:18.204Z,19.97
2018-06-09T02:11:54.315Z,19.99
2018-06-09T02:13:30.266Z,20.00
2018-06-09T02:15:07.167Z,20.07
2018-06-09T02:16:43.152Z,19.99
2018-06-09T02:18:19.140Z,19.98
2018-06-09T02:19:55.099Z,19.92
2018-06-09T02:21:31.156Z,19.88
2018-06-09T02:23:07.403Z,19.79
2018-06-09T02:24:43.392Z,19.75
2018-06-09T02:26:19.507Z,19.82
2018-06-09T02:27:55.627Z,19.83
2018-06-09T02:29:31.601Z,19.78
2018-06-09T02:31:07.603Z,19.73
2018-06-09T02:32:43.647Z,19.62
2018-06-09T02:34:19.946Z,19.63
2018-06-09T02:35:55.919Z,19.66
2018-06-09T02:37:32.203Z,19.69
2018-06-09T02:39:09.205Z,19.78
2018-06-09T02:40:45.182Z,19.79
2018-06-09T02:42:21.265Z,19.83
2018-06-09T02:43:57.201Z,19.78
2018-06-09T02:45:33.260Z,19.66
2018-06-09T02:47:09.231Z,19.58
2018-06-09T02:48:45.318Z,19.59
2018-06-09T02:50:21.415Z,19.54
2018-06-09T02:51:57.390Z,19.59
2018-06-09T02:53:33.368Z,19.62
2018-06-09T02:55:09.405Z,19.59
2018-06-09T02:56:45.426Z,19.49
2018-06-09T02:58:21.433Z,19.47
2018-06-09T02:59:57.438Z,19.49
2018-06-09T03:01:33.449Z,19.60
2018-06-09T03:03:09.420Z,19.67
2018-06-09T03:04:45.488Z,19.64
2018-06-09T03:06:21.447Z,19.58
2018-06-09T03:07:57.507Z,19.58
2018-06-09T03:09:33.455Z,19.54
2018-06-09T03:11:09.457Z,19.56
2018-06-09T03:12:45.452Z,19.59
2018-06-09T03:14:22.295Z,19.61
2018-06-09T03:15:58.280Z,19.58
2018-06-09T03:17:34.293Z,19.57
2018-06-09T03:19:10.528Z,19.46
2018-06-09T03:20:46.671Z,19.45
2018-06-09T03:22:22.944Z,19.47
2018-06-09T03:23:58.885Z,19.57
2018-06-09T03:25:34.849Z,19.62
2018-06-09T03:27:10.802Z,19.58
2018-06-09T03:28:46.817Z,19.55
2018-06-09T03:30:22.836Z,19.55
2018-06-09T03:31:58.769Z,19.60
2018-06-09T03:33:34.811Z,19.65
2018-06-09T03:35:10.940Z,19.70
2018-06-09T03:36:47.007Z,19.66
2018-06-09T03:38:23.312Z,19.44
2018-06-09T03:39:59.309Z,19.77
2018-06-09T03:41:35.399Z,19.85
2018-06-09T03:43:11.547Z,19.81
2018-06-09T03:44:47.486Z,19.82
2018-06-09T03:46:23.430Z,19.89
2018-06-09T03:47:59.476Z,19.95
2018-06-09T03:49:35.178Z,19.98
2018-06-09T03:51:10.944Z,19.94
2018-06-09T03:52:46.906Z,19.96
2018-06-09T03:54:22.949Z,19.77
2018-06-09T03:55:58.900Z,20.05
2018-06-09T03:57:34.851Z,20.10
2018-06-09T03:59:10.945Z,20.25
2018-06-09T04:00:46.968Z,20.34
2018-06-09T04:02:23.101Z,20.38
2018-06-09T04:03:59.062Z,20.23
2018-06-09T04:05:35.038Z,20.39
2018-06-09T04:07:11.058Z,20.45
2018-06-09T04:10:37.583Z,20.72
2018-06-09T04:12:13.581Z,20.92
2018-06-09T04:13:49.551Z,21.51
2018-06-09T04:15:25.488Z,22.92
2018-06-09T04:17:01.517Z,24.16
2018-06-09T04:18:37.997Z,24.88
2018-06-09T04:20:13.980Z,24.54
2018-06-09T04:21:50.043Z,25.92
2018-06-09T04:23:26.053Z,26.84
2018-06-09T04:25:03.028Z,27.61
2018-06-09T04:26:39.012Z,27.81
2018-06-09T04:28:15.016Z,27.95
2018-06-09T04:29:50.996Z,27.66
2018-06-09T04:31:26.968Z,27.24
2018-06-09T04:33:03.302Z,27.29
2018-06-09T04:34:39.291Z,27.83
2018-06-09T04:36:15.082Z,27.83
2018-06-09T04:37:51.079Z,27.62
2018-06-09T04:39:27.083Z,28.05
2018-06-09T04:41:03.118Z,28.42
2018-06-09T04:42:39.818Z,28.75
2018-06-09T04:44:15.940Z,28.18
2018-06-09T04:45:51.916Z,26.16
2018-06-09T04:47:27.958Z,24.79
2018-06-09T04:49:04.068Z,24.03
2018-06-09T04:50:40.108Z,23.58
2018-06-09T04:52:16.431Z,22.84
2018-06-09T04:53:52.488Z,22.33
2018-06-09T04:55:28.453Z,22.04
2018-06-09T04:57:04.632Z,21.93
2018-06-09T04:58:40.622Z,21.79
2018-06-09T05:00:16.721Z,21.73
2018-06-09T05:01:52.676Z,21.60
2018-06-09T05:03:28.678Z,21.66
2018-06-09T05:05:04.634Z,21.66
2018-06-09T05:06:40.888Z,21.77
2018-06-09T05:08:16.899Z,21.99
2018-06-09T05:09:52.851Z,22.11
2018-06-09T05:11:28.813Z,22.50
2018-06-09T05:13:04.990Z,22.87
2018-06-09T05:14:40.969Z,23.26
2018-06-09T05:16:16.951Z,23.40
2018-06-09T05:17:52.911Z,23.55
2018-06-09T05:19:30.556Z,23.60
2018-06-09T05:21:07.052Z,23.45
2018-06-09T05:22:43.184Z,23.51
2018-06-09T05:24:19.185Z,23.51
2018-06-09T05:25:55.214Z,23.66
2018-06-09T05:27:31.198Z,23.84
2018-06-09T05:29:07.156Z,24.02
2018-06-09T05:30:43.257Z,24.00
2018-06-09T05:32:19.320Z,24.16
2018-06-09T05:33:55.330Z,24.58
2018-06-09T05:35:31.325Z,24.56
2018-06-09T05:37:07.447Z,24.55
2018-06-09T05:38:43.582Z,24.59
2018-06-09T05:40:19.741Z,24.90
2018-06-09T05:41:55.747Z,25.03
2018-06-09T05:43:31.743Z,25.19
2018-06-09T05:45:10.588Z,25.36
2018-06-09T05:46:46.627Z,25.24
2018-06-09T05:48:22.767Z,25.12
2018-06-09T05:49:58.874Z,25.16
2018-06-09T05:51:35.083Z,25.21
2018-06-09T05:53:11.028Z,25.13
2018-06-09T05:54:47.052Z,24.90
2018-06-09T05:56:23.092Z,24.86
2018-06-09T05:58:00.950Z,24.98
2018-06-09T05:59:36.943Z,25.08
2018-06-09T06:01:13.258Z,25.19
2018-06-09T06:02:49.343Z,25.27
2018-06-09T06:04:25.405Z,25.26
2018-06-09T06:06:01.343Z,25.26
2018-06-09T06:07:37.292Z,25.00
2018-06-09T06:09:13.304Z,25.01
2018-06-09T06:10:49.247Z,24.80
2018-06-09T06:12:25.252Z,24.82
2018-06-09T06:14:01.235Z,24.80
2018-06-09T06:15:37.304Z,24.90
2018-06-09T06:17:13.317Z,24.67
2018-06-09T06:18:49.295Z,24.65
2018-06-09T06:20:25.339Z,24.58
2018-06-09T06:22:01.359Z,24.63
2018-06-09T06:23:37.788Z,24.65
2018-06-09T06:25:15.349Z,24.79
2018-06-09T06:26:51.360Z,24.88
2018-06-09T06:28:27.497Z,24.98
2018-06-09T06:30:06.846Z,25.00
2018-06-09T06:31:42.881Z,25.01
2018-06-09T06:33:18.935Z,25.08
2018-06-09T06:34:54.923Z,25.23
2018-06-09T06:36:31.024Z,25.28
2018-06-09T06:38:07.799Z,25.34
2018-06-09T06:39:44.037Z,25.48
2018-06-09T06:41:20.148Z,25.53
2018-06-09T06:42:56.369Z,25.61
2018-06-09T06:44:32.566Z,25.70
2018-06-09T06:46:08.407Z,25.77
2018-06-09T06:47:44.349Z,26.07
2018-06-09T06:49:20.520Z,26.31
2018-06-09T06:50:56.563Z,26.20
2018-06-09T06:52:32.671Z,26.22
2018-06-09T06:54:08.917Z,26.33
2018-06-09T06:55:45.304Z,26.54
2018-06-09T06:57:21.736Z,26.61
2018-06-09T06:58:57.746Z,26.23
2018-06-09T07:00:33.546Z,26.53
2018-06-09T07:02:09.525Z,26.48
2018-06-09T07:03:45.396Z,26.38
2018-06-09T07:05:21.548Z,26.17
2018-06-09T07:06:57.691Z,26.02
2018-06-09T07:08:33.867Z,25.97
2018-06-09T07:10:09.911Z,25.73
2018-06-09T07:11:45.853Z,25.61
2018-06-09T07:13:21.893Z,25.48
2018-06-09T07:14:57.877Z,25.38
2018-06-09T07:16:33.903Z,25.18
2018-06-09T07:18:09.868Z,25.03
2018-06-09T07:19:45.603Z,24.85
2018-06-09T07:21:21.374Z,25.00
2018-06-09T07:22:57.387Z,25.05
2018-06-09T07:24:33.395Z,25.03
2018-06-09T07:26:09.326Z,24.83
2018-06-09T07:27:45.397Z,24.61
2018-06-09T07:29:21.419Z,24.54
2018-06-09T07:30:57.416Z,24.50
2018-06-09T07:32:33.541Z,24.82
2018-06-09T07:34:09.607Z,24.86
2018-06-09T07:35:45.599Z,24.87
2018-06-09T07:37:21.797Z,24.63
2018-06-09T07:38:57.850Z,24.61
2018-06-09T07:40:33.930Z,24.64
2018-06-09T07:42:09.954Z,24.82
2018-06-09T07:43:45.955Z,25.12
2018-06-09T07:45:21.980Z,24.97
2018-06-09T07:46:58.211Z,25.04
2018-06-09T07:48:34.383Z,25.38
2018-06-09T07:50:10.326Z,25.53
2018-06-09T07:51:46.331Z,25.68
2018-06-09T07:53:22.194Z,25.64
2018-06-09T07:54:57.941Z,25.40
2018-06-09T07:56:33.914Z,25.53
2018-06-09T07:58:09.877Z,25.74
2018-06-09T07:59:45.911Z,25.72
2018-06-09T08:01:22.246Z,25.86
2018-06-09T08:02:58.247Z,25.63
2018-06-09T08:04:34.229Z,25.79
2018-06-09T08:06:10.338Z,25.83
2018-06-09T08:07:46.322Z,25.83
2018-06-09T08:09:22.299Z,25.96
2018-06-09T08:10:58.258Z,26.04
2018-06-09T08:12:34.244Z,26.15
2018-06-09T08:14:10.193Z,26.16
2018-06-09T08:15:46.273Z,26.16
2018-06-09T08:17:22.415Z,26.22
2018-06-09T08:18:58.391Z,26.25
2018-06-09T08:20:34.361Z,26.44
2018-06-09T08:22:10.380Z,26.38
2018-06-09T08:23:46.374Z,26.44
2018-06-09T08:25:22.317Z,26.51
2018-06-09T08:26:58.296Z,26.42
2018-06-09T08:28:34.288Z,26.63
2018-06-09T08:30:11.323Z,26.72
2018-06-09T08:31:47.548Z,26.81
2018-06-09T08:33:23.881Z,26.76
2018-06-09T08:34:59.846Z,26.87
2018-06-09T08:36:35.910Z,26.87
2018-06-09T08:38:11.830Z,26.94
2018-06-09T08:39:47.808Z,26.90
2018-06-09T08:41:23.859Z,27.01
2018-06-09T08:42:59.907Z,27.07
2018-06-09T08:44:36.172Z,27.19
2018-06-09T08:46:12.149Z,27.14
2018-06-09T08:47:48.185Z,27.14
2018-06-09T08:49:24.225Z,27.23
2018-06-09T08:51:00.205Z,27.32
2018-06-09T08:52:36.242Z,27.44
2018-06-09T08:54:12.276Z,27.47
2018-06-09T08:55:48.289Z,27.55
2018-06-09T08:57:24.315Z,27.57
2018-06-09T08:59:00.339Z,27.62
2018-06-09T09:00:36.340Z,27.63
2018-06-09T09:02:12.354Z,27.77
2018-06-09T09:03:48.408Z,27.83
2018-06-09T09:05:24.629Z,27.83
2018-06-09T09:07:00.646Z,27.92
2018-06-09T09:08:36.357Z,28.12
2018-06-09T09:10:12.189Z,28.08
2018-06-09T09:11:48.184Z,28.05
2018-06-09T09:13:24.216Z,28.01
2018-06-09T09:15:00.372Z,28.11
2018-06-09T09:16:36.395Z,28.15
2018-06-09T09:18:12.528Z,28.19
2018-06-09T09:19:48.504Z,28.29
2018-06-09T09:21:24.490Z,28.30
2018-06-09T09:23:00.474Z,28.37
2018-06-09T09:24:36.423Z,28.45
2018-06-09T09:26:12.996Z,28.53
2018-06-09T09:27:48.990Z,28.47
2018-06-09T09:29:25.717Z,28.45
2018-06-09T09:31:01.684Z,28.51
2018-06-09T09:32:37.822Z,28.44
2018-06-09T09:34:13.797Z,28.35
2018-06-09T09:35:49.819Z,28.40
2018-06-09T09:37:25.825Z,28.36
2018-06-09T09:39:01.749Z,28.31
2018-06-09T09:40:37.756Z,28.28
2018-06-09T09:42:14.521Z,28.52
2018-06-09T09:43:50.495Z,28.63
2018-06-09T09:45:26.463Z,28.70
2018-06-09T09:47:02.453Z,28.58
2018-06-09T09:48:38.285Z,28.48
2018-06-09T09:50:14.146Z,28.43
2018-06-09T09:51:50.898Z,28.53
2018-06-09T09:53:26.852Z,28.62
2018-06-09T09:55:02.843Z,28.72
2018-06-09T09:56:38.835Z,28.53
2018-06-09T09:58:14.865Z,28.37
2018-06-09T09:59:50.818Z,28.22
2018-06-09T10:01:26.815Z,28.27
2018-06-09T10:03:02.829Z,28.43
2018-06-09T10:04:39.084Z,28.57
2018-06-09T10:06:15.134Z,28.66
2018-06-09T10:07:51.083Z,28.75
2018-06-09T10:09:27.116Z,28.71
2018-06-09T10:11:03.099Z,28.86
2018-06-09T10:12:39.086Z,28.87
2018-06-09T10:14:15.175Z,28.87
2018-06-09T10:15:51.184Z,28.96
2018-06-09T10:17:27.222Z,28.94
2018-06-09T10:19:03.331Z,29.12
2018-06-09T10:20:39.485Z,29.36
2018-06-09T10:22:15.499Z,29.53
2018-06-09T10:23:51.528Z,29.54
2018-06-09T10:25:27.544Z,29.55
2018-06-09T10:27:03.502Z,29.67
2018-06-09T10:28:42.525Z,29.47
2018-06-09T10:30:18.732Z,29.43
2018-06-09T10:31:54.763Z,29.40
2018-06-09T10:33:35.312Z,29.37
2018-06-09T10:35:11.413Z,29.37
2018-06-09T10:36:47.444Z,29.45
2018-06-09T10:38:23.453Z,29.61
2018-06-09T10:39:59.475Z,29.89
2018-06-09T10:41:35.491Z,30.06
2018-06-09T10:43:11.557Z,29.96
2018-06-09T10:44:47.532Z,29.99
2018-06-09T10:46:23.525Z,29.77
2018-06-09T10:47:59.556Z,29.87
2018-06-09T10:49:35.525Z,29.84
2018-06-09T10:51:11.457Z,29.81
2018-06-09T10:52:48.285Z,30.17
2018-06-09T10:54:24.356Z,30.38
2018-06-09T10:56:00.317Z,30.37
2018-06-09T10:57:36.364Z,30.47
2018-06-09T10:59:12.366Z,30.23
2018-06-09T11:00:48.377Z,30.21
2018-06-09T11:02:24.420Z,30.04
2018-06-09T11:04:00.424Z,30.09
2018-06-09T11:05:36.408Z,30.11
2018-06-09T11:07:12.445Z,30.11
2018-06-09T11:08:48.460Z,30.14
2018-06-09T11:10:24.907Z,30.25
2018-06-09T11:12:01.011Z,30.27
2018-06-09T11:13:37.236Z,30.54
2018-06-09T11:15:13.310Z,30.54
2018-06-09T11:16:49.354Z,30.46
2018-06-09T11:18:25.159Z,30.46
2018-06-09T11:20:00.984Z,30.14
2018-06-09T11:21:37.181Z,30.36
2018-06-09T11:23:13.246Z,30.38
2018-06-09T11:24:50.115Z,30.27
2018-06-09T11:26:26.165Z,30.12
2018-06-09T11:28:02.569Z,30.36
2018-06-09T11:29:38.615Z,30.63
2018-06-09T11:31:14.615Z,30.67
2018-06-09T11:32:50.728Z,30.20
2018-06-09T11:34:26.655Z,30.07
2018-06-09T11:36:02.854Z,30.06
2018-06-09T11:37:38.963Z,30.13
2018-06-09T11:39:14.909Z,30.10
2018-06-09T11:40:51.063Z,30.15
2018-06-09T11:42:27.217Z,30.33
2018-06-09T11:44:03.355Z,30.29
2018-06-09T11:45:39.285Z,30.43
2018-06-09T11:47:15.306Z,30.64
2018-06-09T11:48:51.310Z,30.78
2018-06-09T11:50:27.443Z,30.76
2018-06-09T11:52:03.459Z,30.89
2018-06-09T11:53:39.513Z,30.73
2018-06-09T11:55:15.565Z,30.39
2018-06-09T11:56:51.573Z,30.36
2018-06-09T11:58:28.922Z,30.48
2018-06-09T12:00:04.949Z,30.62
2018-06-09T12:01:41.142Z,30.77
2018-06-09T12:03:17.411Z,31.06
2018-06-09T12:04:53.437Z,31.10
2018-06-09T12:06:29.510Z,31.12
2018-06-09T12:08:05.555Z,31.32
2018-06-09T12:09:41.556Z,31.52
2018-06-09T12:11:17.576Z,31.43
2018-06-09T12:12:53.687Z,31.54
2018-06-09T12:14:29.884Z,31.47
2018-06-09T12:16:05.968Z,31.52
2018-06-09T12:17:41.945Z,31.51
2018-06-09T12:19:17.928Z,31.47
2018-06-09T12:20:54.040Z,31.49
2018-06-09T12:22:30.397Z,31.57
2018-06-09T12:24:06.374Z,31.44
2018-06-09T12:25:42.315Z,31.72
2018-06-09T12:27:18.332Z,31.74
2018-06-09T12:28:54.377Z,31.55
2018-06-09T12:30:30.388Z,30.92
2018-06-09T12:32:06.352Z,30.51
2018-06-09T12:33:42.375Z,30.05
2018-06-09T12:35:18.347Z,29.49
2018-06-09T12:36:54.331Z,28.99
2018-06-09T12:38:31.021Z,28.83
2018-06-09T12:40:07.106Z,28.57
2018-06-09T12:41:45.245Z,28.53
2018-06-09T12:43:22.387Z,28.13
2018-06-09T12:44:58.699Z,28.13
2018-06-09T12:46:34.841Z,28.02
2018-06-09T12:48:10.837Z,27.89
2018-06-09T12:49:46.811Z,27.91
2018-06-09T12:51:22.886Z,27.93
2018-06-09T12:52:58.797Z,27.74
2018-06-09T12:54:34.883Z,27.78
2018-06-09T12:56:10.862Z,27.71
2018-06-09T12:57:47.133Z,27.85
2018-06-09T12:59:23.446Z,27.79
2018-06-09T13:00:59.416Z,27.80
2018-06-09T13:02:35.385Z,27.74
2018-06-09T13:04:12.723Z,27.82
2018-06-09T13:05:49.022Z,27.86
2018-06-09T13:07:25.937Z,27.95
2018-06-09T13:09:01.926Z,28.03
2018-06-09T13:10:38.528Z,27.93
2018-06-09T13:12:14.876Z,27.79
2018-06-09T13:13:50.946Z,27.67
2018-06-09T13:15:27.771Z,27.72
2018-06-09T13:17:10.470Z,27.71
2018-06-09T13:18:46.411Z,27.63
2018-06-09T13:20:22.424Z,27.31
2018-06-09T13:22:00.176Z,27.24
2018-06-09T13:23:37.265Z,27.09
2018-06-09T13:25:13.600Z,27.12
2018-06-09T13:26:49.640Z,27.07
2018-06-09T13:28:26.461Z,27.10
2018-06-09T13:30:02.470Z,27.12
2018-06-09T13:31:38.611Z,27.22
2018-06-09T13:33:14.967Z,27.24
2018-06-09T13:34:50.922Z,27.28
2018-06-09T13:36:27.347Z,27.30
2018-06-09T13:38:03.349Z,27.23
2018-06-09T13:39:39.571Z,27.34
2018-06-09T13:41:17.137Z,27.46
2018-06-09T13:42:53.225Z,27.34
2018-06-09T13:44:29.464Z,27.31
2018-06-09T13:46:05.433Z,27.31
2018-06-09T13:47:41.457Z,27.36
2018-06-09T13:49:17.477Z,27.21
2018-06-09T13:50:59.343Z,27.20
2018-06-09T13:52:35.319Z,26.97
2018-06-09T13:54:11.488Z,26.84
2018-06-09T13:55:47.479Z,26.84
2018-06-09T13:57:23.669Z,26.99
2018-06-09T13:58:59.673Z,27.14
2018-06-09T14:00:35.655Z,27.14
2018-06-09T14:02:11.612Z,27.08
2018-06-09T14:03:47.586Z,26.97
2018-06-09T14:05:23.944Z,27.04
2018-06-09T14:06:59.944Z,27.08
2018-06-09T14:08:36.191Z,27.07
2018-06-09T14:10:12.296Z,27.02
2018-06-09T14:11:48.612Z,27.02
2018-06-09T14:13:24.634Z,26.87
2018-06-09T14:15:00.713Z,26.59
2018-06-09T14:16:37.125Z,26.55
2018-06-09T14:18:13.276Z,26.61
2018-06-09T14:19:49.222Z,26.52
2018-06-09T14:21:25.221Z,26.60
2018-06-09T14:23:01.212Z,26.35
2018-06-09T14:24:37.171Z,26.36
2018-06-09T14:26:13.408Z,26.44
2018-06-09T14:27:49.814Z,26.66
2018-06-09T14:29:26.111Z,26.84
2018-06-09T14:31:02.115Z,26.94
2018-06-09T14:32:38.590Z,27.06
2018-06-09T14:34:14.588Z,27.17
2018-06-09T14:35:50.628Z,27.05
2018-06-09T14:37:26.640Z,26.92
2018-06-09T14:39:02.638Z,26.96
2018-06-09T14:40:38.632Z,26.99
2018-06-09T14:42:14.403Z,26.94
2018-06-09T14:43:51.406Z,26.98
2018-06-09T14:45:27.784Z,26.99
2018-06-09T14:47:05.464Z,26.91
2018-06-09T14:48:41.671Z,27.05
2018-06-09T14:50:18.034Z,27.04
2018-06-09T14:51:54.607Z,27.11
2018-06-09T14:53:31.506Z,27.10
2018-06-09T14:55:07.960Z,27.20
2018-06-09T14:56:44.038Z,27.28
2018-06-09T14:58:20.937Z,27.18
2018-06-09T14:59:57.439Z,27.26
2018-06-09T15:01:34.194Z,27.25
2018-06-09T15:03:10.521Z,27.17
2018-06-09T15:04:47.123Z,27.31
2018-06-09T15:06:27.772Z,27.48
2018-06-09T15:08:04.502Z,27.53
2018-06-09T15:09:40.485Z,27.49
2018-06-09T15:11:16.935Z,27.64
2018-06-09T15:12:54.033Z,27.72
2018-06-09T15:14:34.505Z,27.77
2018-06-09T15:16:12.875Z,27.70
2018-06-09T15:17:50.018Z,27.79
2018-06-09T15:19:26.699Z,27.80
2018-06-09T15:21:02.902Z,27.79
2018-06-09T15:22:40.487Z,27.61
2018-06-09T15:24:17.855Z,27.52
2018-06-09T15:26:01.069Z,27.53
2018-06-09T15:27:44.826Z,27.23
2018-06-09T15:29:22.184Z,27.09
2018-06-09T15:31:00.528Z,27.05
2018-06-09T15:32:38.414Z,26.97
2018-06-09T15:34:17.811Z,26.92
2018-06-09T15:35:55.065Z,26.74
2018-06-09T15:37:39.157Z,26.76
2018-06-09T15:39:25.095Z,26.77
2018-06-09T15:41:08.895Z,26.91
2018-06-09T15:42:56.896Z,27.05
2018-06-09T15:44:35.304Z,26.83
2018-06-09T15:46:20.451Z,26.79
2018-06-09T15:48:05.121Z,26.86
2018-06-09T15:49:41.777Z,26.79
2018-06-09T15:51:29.055Z,26.90
2018-06-09T15:53:14.904Z,26.96
2018-06-09T15:55:07.230Z,27.14
2018-06-09T15:58:31.760Z,26.97
2018-06-09T16:03:56.955Z,27.27
2018-06-09T16:07:25.410Z,27.20
2018-06-09T16:09:08.407Z,27.14
2018-06-09T16:12:35.770Z,27.17
2018-06-09T16:14:13.014Z,27.16
2018-06-09T16:15:49.241Z,27.04
2018-06-09T16:17:27.274Z,27.02
2018-06-09T16:19:04.614Z,26.97
2018-06-09T16:20:41.130Z,26.75
2018-06-09T16:22:17.857Z,26.82
2018-06-09T16:23:53.940Z,26.87
2018-06-09T16:25:30.493Z,26.84
2018-06-09T16:27:07.168Z,26.95
2018-06-09T16:28:43.255Z,27.00
2018-06-09T16:30:19.741Z,27.08
2018-06-09T16:31:55.931Z,27.03
2018-06-09T16:33:31.921Z,27.05
2018-06-09T16:35:07.908Z,27.00
2018-06-09T16:36:43.993Z,26.96
2018-06-09T16:38:20.810Z,26.94
2018-06-09T16:39:56.849Z,27.03
2018-06-09T16:41:32.904Z,27.07
2018-06-09T16:43:08.924Z,27.14
2018-06-09T16:44:44.924Z,27.25
2018-06-09T16:46:21.273Z,27.30
2018-06-09T16:47:57.570Z,27.41
2018-06-09T16:49:34.289Z,27.39
2018-06-09T16:51:10.493Z,27.27
2018-06-09T16:52:46.538Z,27.43
2018-06-09T16:54:22.681Z,27.51
2018-06-09T16:55:58.652Z,27.69
2018-06-09T16:57:34.515Z,27.63
2018-06-09T16:59:10.539Z,27.65
2018-06-09T17:00:48.077Z,27.70
2018-06-09T17:02:24.385Z,27.73
2018-06-09T17:04:01.572Z,27.71
2018-06-09T17:05:38.006Z,27.65
2018-06-09T17:07:18.415Z,27.53
2018-06-09T17:08:54.306Z,27.51
2018-06-09T17:10:30.288Z,27.49
2018-06-09T17:12:11.762Z,27.51
2018-06-09T17:13:47.712Z,27.34
2018-06-09T17:15:23.591Z,27.15
2018-06-09T17:16:59.609Z,27.17
2018-06-09T17:18:38.361Z,27.15
2018-06-09T17:20:15.635Z,27.22
2018-06-09T17:21:54.877Z,27.17
2018-06-09T17:23:31.460Z,27.17
2018-06-09T17:25:08.086Z,27.15
2018-06-09T17:26:44.880Z,27.16
2018-06-09T17:28:21.384Z,27.25
2018-06-09T17:29:58.656Z,27.29
2018-06-09T17:31:35.985Z,27.23
2018-06-09T17:33:14.272Z,27.21
2018-06-09T17:34:52.063Z,27.17
2018-06-09T17:36:32.681Z,27.29
2018-06-09T17:38:13.680Z,27.40
2018-06-09T17:39:53.854Z,27.41
2018-06-09T17:41:34.677Z,27.35
2018-06-09T17:45:00.695Z,27.43
2018-06-09T17:46:36.913Z,27.34
2018-06-09T17:48:13.928Z,27.26
2018-06-09T17:49:50.352Z,27.17
2018-06-09T17:51:31.486Z,27.20
2018-06-09T17:53:07.904Z,27.31
2018-06-09T17:54:43.935Z,27.37
2018-06-09T17:56:21.343Z,27.43
2018-06-09T17:57:59.144Z,27.36
2018-06-09T17:59:36.284Z,27.30
2018-06-09T18:01:13.544Z,27.22
2018-06-09T18:02:50.739Z,27.03
2018-06-09T18:04:26.869Z,26.97
2018-06-09T18:06:03.885Z,26.63
2018-06-09T18:07:40.514Z,26.91
2018-06-09T18:09:17.273Z,26.85
2018-06-09T18:10:54.388Z,26.82
2018-06-09T18:12:30.812Z,26.69
2018-06-09T18:14:07.176Z,26.66
2018-06-09T18:15:43.917Z,26.60
2018-06-09T18:17:22.116Z,26.48
2018-06-09T18:19:01.283Z,26.45
2018-06-09T18:20:37.767Z,26.40
2018-06-09T18:22:14.963Z,26.47
2018-06-09T18:23:57.879Z,26.43
2018-06-09T18:25:34.526Z,26.42
2018-06-09T18:27:11.277Z,26.44
2018-06-09T18:28:47.425Z,26.46
2018-06-09T18:30:24.733Z,26.46
2018-06-09T18:32:02.333Z,26.42
2018-06-09T18:33:40.962Z,26.31
2018-06-09T18:35:19.072Z,26.23
2018-06-09T18:36:57.737Z,26.16
2018-06-09T18:38:35.405Z,26.07
2018-06-09T18:40:11.542Z,26.03
2018-06-09T18:41:47.595Z,25.99
2018-06-09T18:43:25.594Z,26.05
2018-06-09T18:45:03.095Z,25.87
2018-06-09T18:46:40.396Z,25.90
2018-06-09T18:48:16.837Z,25.79
2018-06-09T18:49:53.056Z,25.69
2018-06-09T18:51:29.088Z,25.71
2018-06-09T18:53:05.184Z,25.75
2018-06-09T18:54:41.508Z,25.75
2018-06-09T18:56:17.979Z,25.75
2018-06-09T18:57:54.297Z,25.74
2018-06-09T18:59:30.593Z,25.72
2018-06-09T19:01:06.802Z,25.68
2018-06-09T19:02:44.083Z,25.57
2018-06-09T19:04:26.371Z,25.57
2018-06-09T19:06:03.104Z,25.50
2018-06-09T19:07:40.651Z,25.40
2018-06-09T19:11:00.226Z,25.36
2018-06-09T19:12:36.881Z,25.34
2018-06-09T19:14:20.130Z,25.22
2018-06-09T19:15:59.216Z,25.15
2018-06-09T19:17:36.995Z,25.09
2018-06-09T19:19:15.618Z,25.11
2018-06-09T19:20:56.098Z,25.12
2018-06-09T19:24:22.964Z,25.23
2018-06-09T19:25:59.601Z,25.22
2018-06-09T19:27:42.207Z,25.07
2018-06-09T19:29:19.246Z,25.02
2018-06-09T19:30:58.735Z,25.09
2018-06-09T19:32:45.119Z,25.06
2018-06-09T19:34:22.618Z,24.81
2018-06-09T19:36:00.039Z,24.60
2018-06-09T19:41:58.977Z,24.55
2018-06-09T19:43:49.017Z,24.52
2018-06-09T19:47:33.641Z,24.46
2018-06-09T19:49:10.150Z,24.29
2018-06-09T19:50:46.770Z,24.15
2018-06-09T19:52:23.833Z,24.21
2018-06-09T19:54:00.727Z,24.19
2018-06-09T19:55:38.540Z,24.24
2018-06-09T19:57:15.576Z,24.29
2018-06-09T19:58:58.074Z,24.39
2018-06-09T20:00:34.851Z,24.32
2018-06-09T20:02:12.571Z,24.25
2018-06-09T20:03:49.018Z,24.21
2018-06-09T20:05:26.263Z,24.03
2018-06-09T20:07:07.846Z,23.80
2018-06-09T20:08:44.952Z,23.88
2018-06-09T20:10:21.205Z,23.84
2018-06-09T20:11:57.356Z,23.88
2018-06-09T20:13:33.539Z,23.89
2018-06-09T20:15:10.068Z,23.91
2018-06-09T20:16:46.928Z,23.72
2018-06-09T20:18:25.460Z,23.74
2018-06-09T20:20:02.665Z,23.79
2018-06-09T20:21:40.438Z,23.73
2018-06-09T20:23:22.272Z,23.81
2018-06-09T20:24:59.135Z,23.94
2018-06-09T20:26:36.331Z,24.02
2018-06-09T20:28:13.712Z,23.96
2018-06-09T20:29:50.208Z,23.99
2018-06-09T20:31:27.006Z,23.92
2018-06-09T20:33:03.120Z,24.05
2018-06-09T20:34:39.218Z,23.98
2018-06-09T20:36:15.555Z,23.99
2018-06-09T20:37:51.690Z,23.96
2018-06-09T20:39:28.877Z,23.97
2018-06-09T20:41:04.950Z,24.07
2018-06-09T20:42:41.023Z,24.02
2018-06-09T20:44:17.165Z,23.91
2018-06-09T20:45:54.074Z,23.91
2018-06-09T20:47:30.741Z,23.98
2018-06-09T20:49:06.785Z,23.93
2018-06-09T20:50:43.127Z,23.95
2018-06-09T20:52:19.298Z,23.94
2018-06-09T20:53:55.577Z,23.96
2018-06-09T20:55:32.261Z,23.94
2018-06-09T20:57:09.106Z,23.89
2018-06-09T20:58:50.501Z,23.86
2018-06-09T21:00:27.968Z,23.99
2018-06-09T21:02:04.151Z,24.01
2018-06-09T21:03:40.339Z,23.99
2018-06-09T21:05:16.640Z,23.96
2018-06-09T21:06:53.662Z,23.98